createdAt,value
2022-08-03T00:02:25.159Z,12.60
2022-08-03T00:07:27.757Z,12.00
2022-08-03T00:12:30.391Z,6.97
2022-08-03T00:17:52.322Z,8.02
2022-08-03T00:22:55.469Z,10.57
2022-08-03T00:27:58.067Z,9.93
2022-08-03T00:33:01.354Z,10.98
2022-08-03T00:38:04.921Z,10.55
2022-08-03T00:43:10.619Z,8.73
2022-08-03T00:48:19.588Z,9.20
2022-08-03T00:53:36.656Z,11.60
2022-08-03T00:58:39.237Z,8.45
2022-08-03T01:03:42.148Z,16.67
2022-08-03T01:09:04.419Z,7.03
2022-08-03T01:14:18.554Z,8.80
2022-08-03T01:19:37.103Z,7.88
2022-08-03T01:25:17.931Z,9.50
2022-08-03T01:30:20.840Z,5.13
2022-08-03T01:35:38.337Z,10.55
2022-08-03T01:40:43.178Z,8.30
2022-08-03T01:45:46.022Z,7.10
2022-08-03T01:50:49.978Z,6.10
2022-08-03T01:55:54.622Z,12.48
2022-08-03T02:01:01.209Z,11.82
2022-08-03T02:07:00.697Z,7.68
2022-08-03T02:11:31.619Z,9.18
2022-08-03T02:16:35.427Z,5.60
2022-08-03T02:21:57.327Z,6.80
2022-08-03T02:27:01.644Z,10.53
2022-08-03T02:32:04.594Z,8.98
2022-08-03T02:37:09.040Z,10.38
2022-08-03T02:42:12.998Z,9.35
2022-08-03T02:47:16.655Z,12.38
2022-08-03T02:52:24.468Z,8.13
2022-08-03T02:57:28.837Z,14.20
2022-08-03T03:02:31.726Z,15.50
2022-08-03T03:07:51.539Z,13.93
2022-08-03T03:12:58.828Z,20.60
2022-08-03T03:18:02.336Z,11.73
2022-08-03T03:23:05.688Z,9.40
2022-08-03T03:28:08.729Z,7.70
2022-08-03T03:33:11.401Z,9.68
2022-08-03T03:38:14.015Z,13.98
2022-08-03T03:43:18.591Z,8.77
2022-08-03T03:53:24.639Z,8.57
2022-08-03T03:58:27.219Z,20.23
2022-08-03T04:03:29.989Z,8.20
2022-08-03T04:08:51.232Z,9.82
2022-08-03T04:14:01.939Z,14.75
2022-08-03T04:19:10.893Z,9.23
2022-08-03T04:24:14.098Z,11.48
2022-08-03T04:29:17.765Z,8.88
2022-08-03T04:34:20.332Z,13.27
2022-08-03T04:39:28.235Z,15.13
2022-08-03T04:44:32.161Z,7.68
2022-08-03T04:49:37.976Z,14.70
2022-08-03T04:54:50.769Z,25.55
2022-08-03T05:00:02.650Z,23.75
2022-08-03T05:05:06.379Z,29.42
2022-08-03T05:10:15.885Z,33.55
2022-08-03T05:15:18.816Z,32.70
2022-08-03T05:20:21.509Z,30.00
2022-08-03T05:25:27.306Z,30.52
2022-08-03T05:30:34.116Z,28.70
2022-08-03T05:35:57.787Z,25.30
2022-08-03T05:41:21.558Z,28.13
2022-08-03T05:46:26.490Z,28.73
2022-08-03T05:51:29.109Z,28.58
2022-08-03T05:56:31.702Z,25.08
2022-08-03T06:01:34.420Z,32.13
2022-08-03T06:06:37.195Z,32.63
2022-08-03T06:11:42.160Z,30.23
2022-08-03T06:16:45.614Z,28.80
2022-08-03T06:21:49.414Z,34.67
2022-08-03T06:26:54.622Z,22.58
2022-08-03T06:31:57.261Z,28.20
2022-08-03T06:37:02.278Z,26.45
2022-08-03T06:42:06.532Z,21.50
2022-08-03T06:47:12.485Z,25.98
2022-08-03T06:52:15.234Z,19.98
2022-08-03T06:57:37.891Z,34.30
2022-08-03T07:02:41.071Z,31.30
2022-08-03T07:07:43.708Z,24.17
2022-08-03T07:12:52.975Z,26.35
2022-08-03T07:17:58.941Z,31.05
2022-08-03T07:23:01.715Z,35.70
2022-08-03T07:28:06.822Z,31.92
2022-08-03T07:33:09.525Z,26.80
2022-08-03T07:38:12.054Z,31.55
2022-08-03T07:43:15.720Z,29.00
2022-08-03T07:48:18.336Z,29.17
2022-08-03T07:53:21.390Z,24.92
2022-08-03T07:58:24.635Z,29.15
2022-08-03T08:03:27.463Z,30.38
2022-08-03T08:08:44.181Z,38.50
2022-08-03T08:13:46.796Z,23.55
2022-08-03T08:18:49.474Z,17.10
2022-08-03T08:23:57.169Z,30.55
2022-08-03T08:29:00.590Z,28.88
2022-08-03T08:34:05.705Z,21.17
2022-08-03T08:39:08.230Z,26.05
2022-08-03T08:44:12.238Z,31.27
2022-08-03T08:49:17.563Z,40.75
2022-08-03T08:54:22.890Z,40.67
2022-08-03T08:59:26.660Z,31.45
2022-08-03T09:04:49.618Z,32.15
2022-08-03T09:15:24.295Z,32.15
2022-08-03T09:20:29.708Z,26.85
2022-08-03T09:25:40.757Z,36.00
2022-08-03T09:30:58.742Z,34.70
2022-08-03T09:36:02.823Z,32.22
2022-08-03T09:41:18.258Z,25.02
2022-08-03T09:46:21.243Z,20.02
2022-08-03T09:51:33.282Z,31.95
2022-08-03T09:56:49.167Z,29.52
2022-08-03T10:01:51.860Z,31.35
2022-08-03T10:07:07.468Z,36.58
2022-08-03T10:12:14.664Z,33.65
2022-08-03T10:17:17.469Z,36.13
2022-08-03T10:22:23.355Z,26.83
2022-08-03T10:27:33.384Z,48.65
2022-08-03T10:32:35.878Z,31.13
2022-08-03T10:37:56.655Z,27.75
2022-08-03T10:43:06.955Z,34.38
2022-08-03T10:48:09.836Z,21.80
2022-08-03T10:53:14.691Z,26.95
2022-08-03T10:58:56.949Z,21.00
2022-08-03T11:04:08.997Z,27.45
2022-08-03T11:09:13.834Z,26.92
2022-08-03T11:14:21.089Z,21.20
2022-08-03T11:19:27.590Z,16.50
2022-08-03T11:24:37.784Z,23.95
2022-08-03T11:30:07.658Z,26.25
2022-08-03T11:35:30.731Z,28.02
2022-08-03T11:40:46.363Z,25.33
2022-08-03T11:46:28.497Z,27.23
2022-08-03T11:51:32.712Z,21.25
2022-08-03T11:56:50.787Z,14.10
2022-08-03T12:02:09.714Z,19.38
2022-08-03T12:07:12.390Z,22.67
2022-08-03T12:12:27.805Z,24.23
2022-08-03T12:17:52.738Z,24.92
2022-08-03T12:23:03.724Z,18.92
2022-08-03T12:28:36.090Z,22.40
2022-08-03T12:33:33.021Z,26.13
2022-08-03T12:38:39.684Z,17.13
2022-08-03T12:43:50.270Z,18.08
2022-08-03T12:49:06.815Z,19.58
2022-08-03T12:54:16.169Z,16.67
2022-08-03T12:59:32.514Z,17.05
2022-08-03T13:04:38.361Z,20.30
2022-08-03T13:09:45.978Z,17.98
2022-08-03T13:14:51.892Z,15.95
2022-08-03T13:19:54.484Z,16.20
2022-08-03T13:24:58.100Z,18.95
2022-08-03T13:30:00.783Z,17.38
2022-08-03T13:35:07.999Z,13.63
2022-08-03T13:40:11.912Z,10.65
2022-08-03T13:45:18.304Z,8.85
2022-08-03T13:50:22.185Z,11.43
2022-08-03T13:55:24.983Z,11.10
2022-08-03T14:00:29.570Z,14.73
2022-08-03T14:05:32.601Z,18.08
2022-08-03T14:10:37.275Z,10.70
2022-08-03T14:15:40.013Z,7.85
2022-08-03T14:20:50.114Z,9.82
2022-08-03T14:25:57.910Z,9.65
2022-08-03T14:31:00.961Z,10.43
2022-08-03T14:36:03.996Z,6.43
2022-08-03T14:41:06.629Z,14.82
2022-08-03T14:46:15.160Z,12.65
2022-08-03T14:51:17.759Z,11.73
2022-08-03T14:56:20.434Z,11.60
2022-08-03T15:02:05.355Z,7.53
2022-08-03T15:07:04.471Z,10.13
2022-08-03T15:12:07.281Z,11.90
2022-08-03T15:17:09.949Z,9.23
2022-08-03T15:22:15.461Z,20.85
2022-08-03T15:27:22.234Z,9.73
2022-08-03T15:32:25.031Z,9.27
2022-08-03T15:37:29.263Z,15.68
2022-08-03T15:42:33.125Z,15.70
2022-08-03T15:47:35.787Z,8.38
2022-08-03T15:52:38.572Z,14.38
2022-08-03T15:59:03.693Z,8.15
2022-08-03T16:03:04.565Z,9.45
2022-08-03T16:08:11.805Z,16.95
2022-08-03T16:13:18.734Z,10.40
2022-08-03T16:18:22.557Z,14.13
2022-08-03T16:23:25.605Z,10.27
2022-08-03T16:28:34.468Z,9.57
2022-08-03T16:33:37.767Z,11.38
2022-08-03T16:38:40.596Z,9.93
2022-08-03T16:43:43.160Z,9.20
2022-08-03T16:48:45.874Z,11.30
2022-08-03T16:54:07.251Z,8.07
2022-08-03T16:59:10.898Z,11.00
2022-08-03T17:04:14.304Z,7.53
2022-08-03T17:09:21.050Z,11.32
2022-08-03T17:14:28.269Z,12.18
2022-08-03T17:19:32.572Z,13.23
2022-08-03T17:24:41.387Z,10.82
2022-08-03T17:29:48.811Z,8.63
2022-08-03T17:34:51.480Z,10.23
2022-08-03T17:39:59.480Z,12.02
2022-08-03T17:45:03.757Z,21.70
2022-08-03T17:50:23.293Z,9.00
2022-08-03T17:55:55.732Z,11.43
2022-08-03T18:01:58.262Z,10.65
2022-08-03T18:06:38.983Z,9.70
2022-08-03T18:12:02.735Z,8.18
2022-08-03T18:17:10.458Z,18.00
2022-08-03T18:22:14.413Z,11.10
2022-08-03T18:27:16.969Z,10.57
2022-08-03T18:32:22.751Z,7.03
2022-08-03T18:37:28.035Z,13.27
2022-08-03T18:42:32.631Z,7.47
2022-08-03T18:47:52.502Z,7.97
2022-08-03T18:53:23.102Z,8.68
2022-08-03T18:59:05.456Z,12.93
2022-08-03T19:04:14.035Z,10.80
2022-08-03T19:09:42.160Z,12.70
2022-08-03T19:14:51.915Z,10.43
2022-08-03T19:19:58.145Z,9.07
2022-08-03T19:25:02.421Z,10.52
2022-08-03T19:30:19.943Z,11.07
2022-08-03T19:35:52.189Z,10.93
2022-08-03T19:40:53.805Z,17.55
2022-08-03T19:46:05.946Z,11.32
2022-08-03T19:51:12.197Z,12.27
2022-08-03T19:56:15.882Z,9.90
2022-08-03T20:01:21.331Z,9.00
2022-08-03T20:06:24.401Z,8.38
2022-08-03T20:11:28.803Z,14.38
2022-08-03T20:16:31.698Z,12.43
2022-08-03T20:21:35.621Z,9.65
2022-08-03T20:26:44.547Z,11.15
2022-08-03T20:31:47.681Z,10.30
2022-08-03T20:36:50.330Z,9.67
2022-08-03T20:41:53.553Z,12.43
2022-08-03T20:47:00.659Z,12.25
2022-08-03T20:52:04.028Z,6.78
2022-08-03T20:57:09.574Z,15.50
2022-08-03T21:02:13.052Z,9.98
2022-08-03T21:07:25.711Z,6.75
2022-08-03T21:12:50.632Z,9.05
2022-08-03T21:17:56.217Z,12.02
2022-08-03T21:23:03.179Z,11.77
2022-08-03T21:28:07.592Z,13.70
2022-08-03T21:33:10.168Z,9.75
2022-08-03T21:38:29.798Z,7.70
2022-08-03T21:43:35.248Z,9.15
2022-08-03T21:48:39.852Z,8.50
2022-08-03T21:54:02.194Z,8.07
2022-08-03T21:59:09.413Z,7.57
2022-08-03T22:04:49.991Z,8.77
2022-08-03T22:09:40.988Z,10.93
2022-08-03T22:15:00.172Z,12.27
2022-08-03T22:20:06.220Z,8.40
2022-08-03T22:25:12.660Z,8.52
2022-08-03T22:30:17.971Z,8.00
2022-08-03T22:35:21.861Z,9.73
2022-08-03T22:40:26.108Z,11.60
2022-08-03T22:46:05.993Z,7.00
2022-08-03T22:55:55.050Z,11.27
2022-08-03T23:01:09.697Z,10.10
2022-08-03T23:06:14.727Z,8.00
2022-08-03T23:11:18.641Z,9.07
2022-08-03T23:22:00.561Z,11.25
2022-08-03T23:26:56.009Z,10.60
2022-08-03T23:31:59.745Z,11.55
2022-08-03T23:37:02.371Z,7.65
2022-08-03T23:42:05.038Z,13.00
2022-08-03T23:47:07.569Z,13.98
2022-08-03T23:52:13.597Z,15.32
2022-08-03T23:57:26.157Z,14.30
